Time;durP1;ratioP1;P1;durP2;ratioP2;P2;SDS_P1;SDS_P2;PMS_P1;PMS_P2;Temp;Humidity;BMP_temperature;BMP_pressure;BME280_temperature;BME280_humidity;BME280_pressure;Samples;Min_cycle;Max_cycle;Signal;HPM_P1;HPM_P2
2020/12/10 00:00:08;;;;;;;30.35;16.27;;;4.20;93.70;;;;;;5015455;28;20054;-92
2020/12/10 00:02:34;;;;;;;;;;;4.20;93.60;;;;;;5016617;28;20026;-92
2020/12/10 00:04:59;;;;;;;33.53;16.27;;;4.10;93.40;;;;;;5014741;28;19916;-92
2020/12/10 00:07:25;;;;;;;31.45;15.07;;;4.10;93.40;;;;;;4998570;28;20030;-92
2020/12/10 00:09:52;;;;;;;28.13;14.05;;;4.10;93.50;;;;;;4998221;28;20024;-91
2020/12/10 00:12:18;;;;;;;29.63;14.82;;;4.10;93.60;;;;;;4998689;28;20543;-91
2020/12/10 00:14:44;;;;;;;29.58;16.33;;;4.10;93.50;;;;;;5014566;28;20026;-91
2020/12/10 00:17:11;;;;;;;27.92;14.63;;;4.10;93.40;;;;;;5014865;28;20121;-92
2020/12/10 00:19:38;;;;;;;29.08;15.88;;;4.10;93.40;;;;;;5015232;28;20026;-92
2020/12/10 00:22:03;;;;;;;29.58;15.20;;;4.10;93.30;;;;;;5014355;28;20391;-92
2020/12/10 00:24:29;;;;;;;24.08;14.27;;;4.00;93.40;;;;;;5014127;28;20084;-91
2020/12/10 00:26:55;;;;;;;29.27;14.38;;;4.00;93.40;;;;;;4997744;28;20463;-93
2020/12/10 00:29:20;;;;;;;28.42;14.65;;;4.00;93.40;;;;;;5013895;28;20041;-93
2020/12/10 00:31:46;;;;;;;32.22;17.20;;;4.00;93.40;;;;;;4997183;28;20030;-92
2020/12/10 00:34:12;;;;;;;27.63;14.13;;;4.00;93.10;;;;;;4996915;28;20026;-93
2020/12/10 00:36:37;;;;;;;28.38;15.52;;;4.00;93.30;;;;;;5012928;28;20033;-91
2020/12/10 00:39:04;;;;;;;31.85;16.58;;;4.00;93.20;;;;;;4996470;28;20023;-91
2020/12/10 00:41:29;;;;;;;30.73;17.33;;;3.90;93.20;;;;;;4997547;28;20038;-91
2020/12/10 00:43:55;;;;;;;27.17;15.80;;;3.90;93.20;;;;;;4981407;28;20082;-90
2020/12/10 00:46:23;;;;;;;27.30;15.32;;;3.90;93.20;;;;;;4997732;28;20030;-90
2020/12/10 00:48:49;;;;;;;32.35;16.73;;;3.90;93.20;;;;;;5009852;28;20037;-90
2020/12/10 00:51:15;;;;;;;27.15;15.48;;;3.90;93.10;;;;;;5016891;28;20054;-91
2020/12/10 00:53:40;;;;;;;26.13;13.65;;;3.80;93.10;;;;;;5000173;28;20071;-91
2020/12/10 00:56:06;;;;;;;26.15;16.00;;;3.80;93.20;;;;;;5017687;28;20120;-90
2020/12/10 00:58:32;;;;;;;27.65;15.07;;;3.80;93.10;;;;;;5002404;28;20026;-91
2020/12/10 01:00:57;;;;;;;29.00;15.35;;;3.80;93.10;;;;;;5014143;28;20029;-90
2020/12/10 01:03:23;;;;;;;25.23;14.55;;;3.80;93.10;;;;;;5000704;28;20022;-91
2020/12/10 01:05:49;;;;;;;29.13;15.88;;;3.80;93.10;;;;;;5001783;28;20036;-90
2020/12/10 01:08:14;;;;;;;28.85;15.65;;;3.80;93.10;;;;;;5019700;28;20022;-91
2020/12/10 01:10:40;;;;;;;26.17;13.95;;;3.70;93.10;;;;;;5017051;28;20029;-91
2020/12/10 01:13:06;;;;;;;25.75;14.45;;;3.70;93.10;;;;;;5002567;28;20063;-91
2020/12/10 01:15:32;;;;;;;31.55;18.20;;;3.70;93.10;;;;;;5000158;28;20026;-91
2020/12/10 01:17:58;;;;;;;29.17;16.35;;;3.70;93.00;;;;;;5019267;28;20030;-92
2020/12/10 01:20:24;;;;;;;28.13;16.02;;;3.70;93.10;;;;;;5015147;28;20017;-91
2020/12/10 01:22:50;;;;;;;25.95;13.85;;;3.70;93.10;;;;;;5016294;28;20067;-91
2020/12/10 01:25:15;;;;;;;26.08;13.90;;;3.60;93.20;;;;;;5012871;28;20041;-92
2020/12/10 01:27:41;;;;;;;24.92;15.43;;;3.60;93.20;;;;;;4996665;28;20026;-92
2020/12/10 01:30:07;;;;;;;27.27;14.25;;;3.60;93.20;;;;;;5010303;28;20033;-91
2020/12/10 01:32:33;;;;;;;27.50;15.45;;;3.60;93.20;;;;;;5003958;28;20153;-91
2020/12/10 01:34:58;;;;;;;28.02;15.30;;;3.60;93.10;;;;;;4983559;28;20033;-91
2020/12/10 01:37:25;;;;;;;29.38;16.55;;;3.60;93.10;;;;;;4997167;28;20387;-91
2020/12/10 01:39:53;;;;;;;29.30;15.32;;;3.60;93.10;;;;;;4996979;28;20030;-91
2020/12/10 01:42:19;;;;;;;24.45;13.93;;;3.60;93.00;;;;;;5000182;28;20025;-91
2020/12/10 01:44:45;;;;;;;28.67;15.43;;;3.60;93.40;;;;;;5016612;28;20037;-91
2020/12/10 01:47:11;;;;;;;27.58;14.00;;;3.60;93.10;;;;;;4999588;28;20064;-91
2020/12/10 01:49:38;;;;;;;23.70;13.43;;;3.60;93.10;;;;;;4999944;28;20103;-91
2020/12/10 01:52:05;;;;;;;24.83;12.63;;;3.50;93.10;;;;;;5012995;28;20084;-91
2020/12/10 01:54:32;;;;;;;25.42;13.88;;;3.50;93.10;;;;;;5002447;28;20025;-91
2020/12/10 01:56:58;;;;;;;26.52;13.45;;;3.50;93.10;;;;;;4999686;28;20032;-90
2020/12/10 01:59:24;;;;;;;22.98;13.07;;;3.50;93.10;;;;;;4996776;28;20093;-91
2020/12/10 02:01:50;;;;;;;24.23;13.70;;;3.50;93.10;;;;;;5016080;28;20029;-92
2020/12/10 02:04:33;;;;;;;24.65;14.82;;;3.50;93.00;;;;;;4999778;28;20375;-91
2020/12/10 02:07:00;;;;;;;30.60;15.80;;;3.50;93.00;;;;;;5000694;28;20033;-91
2020/12/10 02:09:26;;;;;;;26.63;14.90;;;3.50;92.90;;;;;;5015599;28;20551;-91
2020/12/10 02:11:52;;;;;;;31.17;16.38;;;3.50;92.90;;;;;;5015962;28;20063;-91
2020/12/10 02:14:19;;;;;;;31.17;17.27;;;3.50;92.90;;;;;;5015669;28;20018;-90
2020/12/10 02:16:45;;;;;;;28.98;15.75;;;3.40;92.90;;;;;;4999311;28;20033;-90
2020/12/10 02:19:11;;;;;;;30.75;17.35;;;3.40;92.80;;;;;;4999500;28;20030;-90
2020/12/10 02:21:37;;;;;;;32.47;16.63;;;3.30;92.80;;;;;;5015430;28;20045;-90
2020/12/10 02:24:03;;;;;;;31.20;16.40;;;3.40;92.80;;;;;;5015614;28;20022;-90
2020/12/10 02:26:29;;;;;;;32.40;17.42;;;3.30;92.80;;;;;;4980374;28;20030;-91
2020/12/10 02:28:59;;;;;;;34.50;18.67;;;3.30;92.80;;;;;;4989016;28;20026;-91
2020/12/10 02:31:27;;;;;;;33.15;17.85;;;3.30;92.70;;;;;;5015972;28;20360;-91
2020/12/10 02:34:01;;;;;;;32.67;17.05;;;3.20;92.70;;;;;;5015690;28;20025;-92
2020/12/10 02:36:27;;;;;;;32.40;17.42;;;3.20;92.70;;;;;;4996543;28;20096;-91
2020/12/10 02:38:53;;;;;;;30.10;16.23;;;3.20;93.00;;;;;;4984917;28;20522;-91
2020/12/10 02:41:19;;;;;;;29.83;16.02;;;3.20;92.70;;;;;;5015428;28;20375;-91
2020/12/10 02:43:45;;;;;;;27.45;15.35;;;3.20;92.70;;;;;;5015389;28;20017;-92
2020/12/10 02:46:11;;;;;;;31.08;16.40;;;3.10;93.00;;;;;;5016142;28;20056;-92
2020/12/10 02:48:37;;;;;;;30.42;15.65;;;3.10;92.70;;;;;;5040015;22;20045;-90
2020/12/10 02:51:04;;;;;;;29.48;15.93;;;3.10;92.70;;;;;;5015152;28;20064;-92
2020/12/10 02:53:30;;;;;;;29.80;15.80;;;3.00;92.70;;;;;;5015114;28;20473;-89
2020/12/10 02:55:56;;;;;;;31.88;16.98;;;3.00;92.60;;;;;;5014406;28;20253;-90
2020/12/10 02:58:22;;;;;;;30.55;15.82;;;3.00;92.50;;;;;;4999677;28;20389;-90
2020/12/10 03:00:48;;;;;;;29.83;15.52;;;2.90;92.60;;;;;;5018560;28;20028;-91
2020/12/10 03:03:17;;;;;;;31.55;16.23;;;2.90;92.60;;;;;;5002734;28;20025;-90
2020/12/10 03:05:44;;;;;;;29.17;15.30;;;2.90;92.60;;;;;;5019147;28;20037;-90
2020/12/10 03:08:10;;;;;;;31.23;16.60;;;2.80;92.60;;;;;;5020580;28;20028;-91
2020/12/10 03:10:36;;;;;;;31.38;16.75;;;2.80;92.50;;;;;;5018877;28;20017;-91
2020/12/10 03:13:04;;;;;;;30.92;16.35;;;2.80;92.50;;;;;;4999747;28;20111;-91
2020/12/10 03:15:30;;;;;;;31.33;16.45;;;2.70;92.50;;;;;;5020245;28;20041;-90
2020/12/10 03:17:55;;;;;;;29.58;15.45;;;2.70;92.50;;;;;;4987324;28;20069;-91
2020/12/10 03:20:22;;;;;;;28.20;15.43;;;2.70;92.50;;;;;;4995434;28;20107;-91
2020/12/10 03:22:48;;;;;;;33.35;16.52;;;2.70;92.40;;;;;;5001402;28;20037;-89
2020/12/10 03:25:13;;;;;;;31.42;16.20;;;2.70;92.50;;;;;;5018892;28;20036;-91
2020/12/10 03:27:39;;;;;;;27.98;15.43;;;2.60;92.40;;;;;;5018335;28;20044;-90
2020/12/10 03:30:05;;;;;;;24.80;14.55;;;2.60;92.50;;;;;;4986215;28;20065;-91
2020/12/10 03:32:30;;;;;;;29.50;15.00;;;2.60;92.60;;;;;;5018977;28;20029;-91
2020/12/10 03:34:56;;;;;;;26.38;14.60;;;2.60;92.60;;;;;;5018182;28;20037;-89
2020/12/10 03:37:22;;;;;;;25.88;13.77;;;2.60;92.60;;;;;;5018171;28;20056;-91
2020/12/10 03:39:47;;;;;;;24.00;12.52;;;2.60;92.70;;;;;;5002050;28;20402;-91
2020/12/10 03:42:13;;;;;;;26.27;13.57;;;2.60;92.70;;;;;;5002414;28;20037;-91
2020/12/10 03:44:39;;;;;;;25.85;13.85;;;2.60;92.70;;;;;;5002173;28;20037;-91
2020/12/10 03:47:04;;;;;;;22.80;12.85;;;2.60;92.70;;;;;;5001478;28;20032;-91
2020/12/10 03:49:32;;;;;;;24.77;13.32;;;2.60;92.70;;;;;;4998387;28;20077;-91
2020/12/10 03:51:58;;;;;;;26.23;13.70;;;2.60;92.70;;;;;;5013037;28;20041;-91
2020/12/10 03:54:24;;;;;;;23.92;13.27;;;2.50;92.70;;;;;;5018533;28;20029;-89
2020/12/10 03:56:50;;;;;;;24.70;12.10;;;2.60;92.80;;;;;;5035887;28;20026;-91
2020/12/10 03:59:15;;;;;;;23.42;12.32;;;2.50;92.80;;;;;;5002986;28;20029;-90
2020/12/10 04:01:41;;;;;;;24.38;12.48;;;2.60;92.80;;;;;;5018774;28;20108;-91
2020/12/10 04:04:07;;;;;;;25.02;13.65;;;2.60;92.80;;;;;;5015499;28;20125;-92
2020/12/10 04:06:32;;;;;;;22.58;12.15;;;2.50;92.80;;;;;;5008729;28;20458;-89
2020/12/10 04:08:58;;;;;;;23.05;12.20;;;2.50;92.80;;;;;;5018283;28;20428;-91
2020/12/10 04:11:24;;;;;;;22.02;11.73;;;2.50;93.00;;;;;;4986472;28;20059;-91
2020/12/10 04:13:50;;;;;;;24.02;12.32;;;2.60;92.70;;;;;;5002385;28;20113;-92
2020/12/10 04:16:15;;;;;;;22.77;12.13;;;2.60;92.70;;;;;;4982528;28;20172;-90
2020/12/10 04:18:42;;;;;;;26.20;13.45;;;2.50;92.70;;;;;;5026917;28;20026;-91
2020/12/10 04:21:11;;;;;;;24.20;12.40;;;2.50;92.70;;;;;;5014939;28;20030;-91
2020/12/10 04:23:37;;;;;;;23.80;12.45;;;2.50;92.70;;;;;;5009137;28;20112;-91
2020/12/10 04:26:04;;;;;;;26.30;13.20;;;2.50;92.70;;;;;;5018074;28;20041;-89
2020/12/10 04:28:29;;;;;;;24.00;12.65;;;2.50;92.60;;;;;;5019130;28;20022;-91
2020/12/10 04:30:55;;;;;;;25.23;13.20;;;2.40;92.60;;;;;;5002325;28;20119;-91
2020/12/10 04:33:21;;;;;;;27.33;14.60;;;2.40;92.60;;;;;;5000483;28;20034;-90
2020/12/10 04:35:47;;;;;;;27.30;13.77;;;2.40;92.60;;;;;;4986097;28;20045;-90
2020/12/10 04:38:13;;;;;;;26.00;14.13;;;2.40;92.60;;;;;;4982989;28;20037;-90
2020/12/10 04:40:39;;;;;;;27.45;14.65;;;2.40;92.60;;;;;;5035958;28;20521;-91
2020/12/10 04:43:07;;;;;;;28.65;14.93;;;2.30;92.60;;;;;;5018334;28;20112;-90
2020/12/10 04:45:33;;;;;;;26.42;13.85;;;2.30;92.60;;;;;;4998519;28;20036;-90
2020/12/10 04:48:00;;;;;;;27.67;13.70;;;2.30;92.60;;;;;;5026773;28;20096;-90
2020/12/10 04:50:27;;;;;;;28.67;14.90;;;2.30;92.60;;;;;;5017797;28;20053;-91
2020/12/10 04:52:54;;;;;;;24.98;13.25;;;2.30;92.60;;;;;;5035421;28;20029;-91
2020/12/10 04:55:20;;;;;;;28.50;14.20;;;2.30;92.60;;;;;;5017588;28;20013;-90
2020/12/10 04:57:47;;;;;;;24.90;13.35;;;2.30;92.60;;;;;;5034837;28;20021;-90
2020/12/10 05:00:17;;;;;;;29.58;15.48;;;2.30;92.70;;;;;;5017598;28;20041;-90
2020/12/10 05:02:45;;;;;;;26.58;14.68;;;2.30;92.60;;;;;;5017835;28;20017;-90
2020/12/10 05:05:27;;;;;;;23.52;13.32;;;2.20;92.60;;;;;;5018077;28;20525;-90
2020/12/10 05:07:54;;;;;;;25.95;13.48;;;2.20;92.60;;;;;;5004467;28;20060;-90
2020/12/10 05:10:20;;;;;;;25.38;14.00;;;2.20;92.60;;;;;;5001551;28;20025;-90
2020/12/10 05:12:47;;;;;;;23.55;12.98;;;2.20;92.60;;;;;;5017050;28;20026;-90
2020/12/10 05:15:30;;;;;;;26.35;13.73;;;2.20;92.70;;;;;;5017798;28;20044;-90
2020/12/10 05:18:06;;;;;;;26.58;14.35;;;2.20;92.60;;;;;;5002220;28;20025;-90
2020/12/10 05:20:50;;;;;;;25.58;12.38;;;2.10;92.50;;;;;;5017183;28;20105;-90
2020/12/10 05:23:32;;;;;;;25.58;13.10;;;2.20;92.60;;;;;;5016959;28;20052;-90
2020/12/10 05:26:01;;;;;;;26.65;14.98;;;2.10;92.50;;;;;;5017000;28;20022;-90
2020/12/10 05:28:27;;;;;;;27.20;14.25;;;2.10;92.50;;;;;;4993083;28;20026;-89
2020/12/10 05:31:12;;;;;;;26.70;14.02;;;2.00;92.50;;;;;;5028621;28;20032;-90
2020/12/10 05:33:53;;;;;;;28.73;14.77;;;2.00;92.60;;;;;;5016965;28;20033;-89
2020/12/10 05:36:19;;;;;;;26.17;13.52;;;2.10;92.60;;;;;;5016809;28;20444;-90
2020/12/10 05:39:07;;;;;;;26.92;15.02;;;2.00;92.60;;;;;;5017993;28;20025;-90
2020/12/10 05:41:40;;;;;;;28.70;14.43;;;2.00;92.60;;;;;;5016813;28;20025;-89
2020/12/10 05:44:19;;;;;;;28.38;15.35;;;2.00;92.60;;;;;;5016886;28;20026;-90
2020/12/10 05:46:49;;;;;;;30.27;14.88;;;2.00;92.60;;;;;;5034799;28;20069;-90
2020/12/10 05:49:15;;;;;;;29.10;14.60;;;2.00;92.60;;;;;;5016564;28;20053;-90
2020/12/10 05:52:03;;;;;;;28.08;14.52;;;1.90;92.90;;;;;;5019905;28;20026;-90
2020/12/10 05:54:34;;;;;;;29.85;14.15;;;1.90;92.60;;;;;;5016998;28;20113;-91
2020/12/10 05:57:03;;;;;;;26.77;14.18;;;2.00;92.60;;;;;;5017336;28;20018;-90
2020/12/10 05:59:31;;;;;;;29.33;14.60;;;1.90;92.60;;;;;;5000877;28;20037;-90
2020/12/10 06:02:04;;;;;;;28.50;14.27;;;1.90;92.60;;;;;;5034393;28;20351;-88
2020/12/10 06:04:30;;;;;;;29.58;14.65;;;1.90;92.60;;;;;;5011792;28;20057;-91
2020/12/10 06:06:57;;;;;;;27.52;13.82;;;1.90;92.60;;;;;;5026331;28;20021;-90
2020/12/10 06:09:26;;;;;;;28.27;13.80;;;1.90;92.60;;;;;;5000693;28;20061;-90
2020/12/10 06:12:23;;;;;;;25.73;13.70;;;1.90;92.60;;;;;;5030207;28;20037;-89
2020/12/10 06:14:54;;;;;;;26.52;13.48;;;1.90;92.60;;;;;;5010906;28;20050;-90
2020/12/10 06:17:20;;;;;;;26.73;14.18;;;1.90;92.60;;;;;;5017146;28;20022;-90
2020/12/10 06:19:46;;;;;;;32.08;15.45;;;1.90;92.60;;;;;;4994482;28;20374;-91
2020/12/10 06:22:25;;;;;;;26.50;13.38;;;1.80;92.60;;;;;;5033089;28;20014;-89
2020/12/10 06:24:54;;;;;;;26.27;13.85;;;1.80;92.60;;;;;;5020957;28;20037;-89
2020/12/10 06:27:24;;;;;;;27.42;13.90;;;1.80;92.50;;;;;;5031916;28;20028;-89
2020/12/10 06:29:50;;;;;;;31.45;14.18;;;1.80;92.50;;;;;;5012753;28;20024;-87
2020/12/10 06:32:18;;;;;;;28.35;13.80;;;1.80;92.80;;;;;;5025865;28;20050;-88
2020/12/10 06:34:55;;;;;;;32.72;14.25;;;1.80;92.50;;;;;;5015722;28;20140;-89
2020/12/10 06:37:24;;;;;;;35.55;16.05;;;1.80;92.50;;;;;;5017601;28;20108;-89
2020/12/10 06:39:52;;;;;;;29.77;14.70;;;1.80;92.50;;;;;;5016887;28;20080;-88
2020/12/10 06:42:19;;;;;;;28.58;16.00;;;1.80;92.50;;;;;;5011732;28;20876;-93
2020/12/10 06:44:45;;;;;;;35.15;15.65;;;1.70;92.50;;;;;;5030580;28;20022;-89
2020/12/10 06:47:12;;;;;;;25.40;13.07;;;1.70;92.50;;;;;;5024488;28;20089;-89
2020/12/10 06:49:40;;;;;;;25.55;13.60;;;1.70;92.60;;;;;;4998190;28;20061;-89
2020/12/10 06:52:20;;;;;;;29.55;13.68;;;1.70;92.60;;;;;;4993402;28;20084;-90
2020/12/10 06:55:05;;;;;;;25.20;13.63;;;1.70;92.60;;;;;;5027771;28;20029;-90
2020/12/10 06:57:51;;;;;;;26.83;13.32;;;1.70;92.60;;;;;;5026128;28;20030;-89
2020/12/10 07:00:48;;;;;;;28.05;13.45;;;1.70;92.60;;;;;;5010515;28;20028;-89
2020/12/10 07:03:21;;;;;;;30.38;15.25;;;1.70;92.60;;;;;;5030263;28;20186;-89
2020/12/10 07:05:50;;;;;;;32.08;14.68;;;1.70;92.60;;;;;;5014204;28;20513;-90
2020/12/10 07:08:20;;;;;;;28.77;14.00;;;1.70;92.90;;;;;;5030173;28;20028;-89
2020/12/10 07:10:48;;;;;;;28.63;14.02;;;1.70;92.70;;;;;;4999328;28;20025;-89
2020/12/10 07:13:17;;;;;;;29.70;15.07;;;1.70;92.60;;;;;;4995487;28;20034;-88
2020/12/10 07:15:53;;;;;;;29.20;14.77;;;1.70;92.60;;;;;;5015693;28;20032;-89
2020/12/10 07:18:23;;;;;;;31.55;13.75;;;1.70;92.60;;;;;;5002610;28;20057;-89
2020/12/10 07:20:49;;;;;;;27.83;14.18;;;1.70;92.70;;;;;;5002835;28;20026;-88
2020/12/10 07:23:16;;;;;;;30.10;14.52;;;1.60;92.60;;;;;;5016781;28;20467;-87
2020/12/10 07:25:42;;;;;;;28.27;12.77;;;1.70;92.60;;;;;;5002777;28;20084;-89
2020/12/10 07:28:08;;;;;;;27.00;13.85;;;1.60;92.60;;;;;;5015873;28;20022;-87
2020/12/10 07:30:34;;;;;;;25.60;13.18;;;1.60;92.60;;;;;;5019282;28;20090;-88
2020/12/10 07:33:04;;;;;;;25.85;12.90;;;1.60;92.60;;;;;;5015161;28;20075;-89
2020/12/10 07:35:35;;;;;;;26.50;12.65;;;1.60;92.60;;;;;;5011408;28;20036;-88
2020/12/10 07:38:09;;;;;;;26.25;13.80;;;1.60;92.60;;;;;;5018581;28;20026;-89
2020/12/10 07:40:34;;;;;;;29.55;13.73;;;1.60;92.60;;;;;;5018984;28;20029;-88
2020/12/10 07:43:09;;;;;;;24.92;13.43;;;1.60;92.60;;;;;;5019207;28;20030;-89
2020/12/10 07:45:35;;;;;;;30.52;13.73;;;1.60;92.50;;;;;;5018395;28;20453;-89
2020/12/10 07:48:03;;;;;;;31.98;14.85;;;1.60;92.50;;;;;;5036024;28;20029;-89
2020/12/10 07:50:32;;;;;;;34.35;17.50;;;1.60;92.50;;;;;;5017846;28;20045;-88
2020/12/10 07:53:04;;;;;;;27.42;14.25;;;1.60;92.50;;;;;;5033617;28;20077;-89
2020/12/10 07:55:33;;;;;;;24.95;13.00;;;1.50;92.40;;;;;;5016753;28;20037;-89
2020/12/10 07:58:46;;;;;;;24.90;13.20;;;1.60;92.50;;;;;;5022520;28;20075;-88
2020/12/10 08:01:12;;;;;;;29.10;12.77;;;1.60;92.50;;;;;;5017833;28;20089;-89
2020/12/10 08:03:44;;;;;;;29.13;14.45;;;1.50;92.50;;;;;;5017387;28;20021;-90
2020/12/10 08:06:13;;;;;;;24.83;12.70;;;1.60;92.60;;;;;;5035401;28;20175;-89
2020/12/10 08:09:07;;;;;;;29.25;13.07;;;1.50;92.60;;;;;;5017583;28;20163;-90
2020/12/10 08:11:33;;;;;;;26.83;13.85;;;1.60;92.60;;;;;;5017725;28;20503;-89
2020/12/10 08:21:50;;;;;;;30.52;14.55;;;1.50;92.60;;;;;;5006120;28;20476;-87
2020/12/10 08:24:41;;;;;;;29.33;13.65;;;1.50;92.60;;;;;;4995086;28;20046;-87
2020/12/10 08:27:13;;;;;;;28.63;13.90;;;1.60;92.60;;;;;;4994694;28;20039;-86
2020/12/10 08:29:39;;;;;;;28.33;13.70;;;1.50;92.60;;;;;;5011606;28;20037;-87
2020/12/10 08:32:10;;;;;;;30.85;14.15;;;1.50;92.60;;;;;;4987404;28;20034;-87
2020/12/10 08:34:37;;;;;;;26.45;13.02;;;1.60;92.70;;;;;;5009400;28;20096;-87
2020/12/10 08:37:05;;;;;;;28.42;13.90;;;1.50;92.70;;;;;;5013127;28;20189;-85
2020/12/10 08:39:34;;;;;;;30.85;14.77;;;1.60;92.70;;;;;;5003394;28;20026;-85
2020/12/10 08:42:01;;;;;;;32.03;14.98;;;1.60;92.70;;;;;;4994487;28;20079;-85
2020/12/10 08:44:50;;;;;;;31.10;16.38;;;1.60;92.60;;;;;;5009426;28;20112;-85
2020/12/10 08:47:26;;;;;;;31.75;15.80;;;1.60;92.60;;;;;;4998977;28;20377;-86
2020/12/10 08:50:25;;;;;;;35.88;16.33;;;1.60;92.60;;;;;;5020112;28;20009;-87
2020/12/10 08:53:03;;;;;;;34.95;16.50;;;1.50;92.50;;;;;;5020217;28;20029;-85
2020/12/10 08:55:41;;;;;;;33.95;15.93;;;1.60;92.60;;;;;;5004223;28;20105;-86
2020/12/10 08:58:13;;;;;;;34.40;16.65;;;1.60;92.60;;;;;;5018311;28;20085;-85
2020/12/10 09:00:41;;;;;;;36.83;17.95;;;1.60;92.60;;;;;;5005061;28;20022;-87
2020/12/10 09:03:22;;;;;;;;;;;;;;;;;;;;;
2020/12/10 09:06:09;;;;;;;30.95;14.80;;;1.60;92.70;;;;;;5011476;28;20549;-88
2020/12/10 09:08:41;;;;;;;35.22;16.42;;;1.50;92.70;;;;;;5019916;28;20025;-88
2020/12/10 09:11:09;;;;;;;35.58;17.00;;;1.60;92.70;;;;;;5025578;28;20480;-86
2020/12/10 09:13:35;;;;;;;33.35;16.25;;;1.60;92.80;;;;;;5003823;28;20025;-85
2020/12/10 09:19:13;;;;;;;29.98;16.10;;;1.60;92.70;;;;;;4989426;28;20481;-89
2020/12/10 09:22:20;;;;;;;32.08;16.23;;;1.60;92.70;;;;;;4987319;28;20041;-89
2020/12/10 09:24:46;;;;;;;36.47;17.05;;;1.60;92.80;;;;;;4993586;28;20046;-89
2020/12/10 09:27:21;;;;;;;38.88;17.65;;;1.60;92.70;;;;;;4998170;28;20163;-88
2020/12/10 09:29:56;;;;;;;33.58;17.23;;;1.60;92.70;;;;;;4984579;28;20030;-88
2020/12/10 09:32:22;;;;;;;34.00;16.77;;;1.60;92.80;;;;;;5020422;28;20026;-89
2020/12/10 09:34:50;;;;;;;36.65;18.52;;;1.60;92.80;;;;;;5027597;28;20088;-89
2020/12/10 09:37:22;;;;;;;36.22;17.50;;;1.70;92.90;;;;;;5015008;28;20026;-89
2020/12/10 09:42:44;;;;;;;35.58;16.85;;;1.80;92.90;;;;;;5007674;28;20030;-89
2020/12/10 09:45:11;;;;;;;33.53;16.55;;;1.70;92.90;;;;;;5020502;28;20030;-89
2020/12/10 09:47:39;;;;;;;30.70;15.63;;;1.80;93.00;;;;;;5003665;28;20109;-90
2020/12/10 09:50:07;;;;;;;35.55;17.60;;;1.80;93.00;;;;;;5000317;28;20042;-88
2020/12/10 09:52:40;;;;;;;49.58;21.90;;;1.80;93.00;;;;;;4991044;28;20099;-88
2020/12/10 09:55:34;;;;;;;40.03;19.52;;;1.90;92.90;;;;;;5012067;28;20081;-88
2020/12/10 09:57:57;;;;;;;35.70;17.90;;;1.90;92.90;;;;;;5011027;28;20037;-89
2020/12/10 10:00:23;;;;;;;37.05;17.35;;;2.00;92.90;;;;;;5019171;28;20052;-92
2020/12/10 10:02:49;;;;;;;40.38;19.67;;;2.00;92.90;;;;;;5013002;28;20114;-93
2020/12/10 10:05:24;;;;;;;37.95;17.95;;;2.00;92.90;;;;;;5018994;28;20095;-90
2020/12/10 10:08:03;;;;;;;39.95;18.58;;;2.00;92.90;;;;;;5017436;28;20500;-91
2020/12/10 10:10:29;;;;;;;42.45;19.98;;;2.00;92.90;;;;;;5016986;28;20026;-91
2020/12/10 10:12:59;;;;;;;44.55;20.60;;;2.00;92.90;;;;;;5019861;28;20109;-90
2020/12/10 10:15:44;;;;;;;39.20;18.08;;;2.00;92.90;;;;;;5024608;28;20041;-89
2020/12/10 10:18:12;;;;;;;46.60;20.80;;;2.00;92.90;;;;;;5020318;28;20026;-89
2020/12/10 10:20:48;;;;;;;43.10;20.27;;;2.00;92.90;;;;;;5021783;28;21465;-89
2020/12/10 10:23:14;;;;;;;39.67;19.95;;;2.00;92.90;;;;;;5022712;28;20467;-88
2020/12/10 10:25:42;;;;;;;40.53;19.38;;;2.10;92.90;;;;;;5023361;28;20128;-86
2020/12/10 10:28:28;;;;;;;40.00;18.70;;;2.10;92.90;;;;;;5025935;28;20022;-86
2020/12/10 10:30:57;;;;;;;38.40;18.77;;;2.10;92.90;;;;;;5018181;28;20029;-87
2020/12/10 10:33:25;;;;;;;40.10;20.17;;;2.10;92.90;;;;;;5027181;28;20022;-87
2020/12/10 10:35:53;;;;;;;39.78;19.70;;;2.10;92.90;;;;;;5021456;28;20036;-87
2020/12/10 10:38:22;;;;;;;39.65;19.33;;;2.10;92.90;;;;;;5039503;28;20032;-88
2020/12/10 10:40:50;;;;;;;42.53;20.50;;;2.10;92.90;;;;;;5021988;28;20448;-88
2020/12/10 10:43:18;;;;;;;39.28;19.40;;;2.10;92.90;;;;;;5021157;28;20025;-87
2020/12/10 10:45:43;;;;;;;38.28;19.05;;;2.10;93.00;;;;;;5004196;28;20029;-88
2020/12/10 10:48:12;;;;;;;36.72;18.23;;;2.20;93.00;;;;;;5035629;28;20084;-88
2020/12/10 10:50:37;;;;;;;36.25;18.63;;;2.20;93.00;;;;;;5037413;28;20132;-88
2020/12/10 10:53:03;;;;;;;43.33;20.77;;;2.20;93.00;;;;;;5036054;28;21598;-88
2020/12/10 10:55:29;;;;;;;50.10;23.63;;;2.20;92.90;;;;;;5022449;28;20036;-89
2020/12/10 10:57:55;;;;;;;44.47;21.92;;;2.10;92.90;;;;;;5036236;28;20456;-88
2020/12/10 11:00:24;;;;;;;43.17;19.40;;;2.20;92.90;;;;;;5029301;28;20045;-88
2020/12/10 11:02:58;;;;;;;39.83;20.15;;;2.20;93.00;;;;;;5019246;28;20030;-90
2020/12/10 11:05:28;;;;;;;41.45;19.13;;;2.20;92.90;;;;;;5026254;28;20029;-90
2020/12/10 11:08:14;;;;;;;44.90;21.90;;;2.30;93.00;;;;;;5014464;28;20026;-88
2020/12/10 11:10:43;;;;;;;36.15;20.30;;;2.30;93.00;;;;;;5001462;28;20080;-87
2020/12/10 11:13:09;;;;;;;37.30;18.92;;;2.30;93.00;;;;;;5010303;28;20481;-87
2020/12/10 11:15:36;;;;;;;37.42;18.45;;;2.30;93.00;;;;;;5029585;28;20029;-89
2020/12/10 11:18:02;;;;;;;45.03;21.80;;;2.30;93.00;;;;;;5018829;28;20026;-88
2020/12/10 11:20:27;;;;;;;38.70;19.85;;;2.40;93.10;;;;;;5033265;28;20166;-88
2020/12/10 11:22:53;;;;;;;37.28;20.08;;;2.40;93.10;;;;;;5021742;28;20083;-88
2020/12/10 11:25:19;;;;;;;39.08;19.83;;;2.40;93.10;;;;;;5035555;28;20473;-90
2020/12/10 11:27:47;;;;;;;39.42;18.27;;;2.50;93.10;;;;;;5033132;28;20439;-90
2020/12/10 11:30:13;;;;;;;31.88;16.30;;;2.50;93.10;;;;;;5032265;28;20026;-87
2020/12/10 11:32:40;;;;;;;39.13;20.90;;;2.60;93.10;;;;;;5035268;28;20097;-91
2020/12/10 11:35:08;;;;;;;47.30;22.98;;;2.50;93.10;;;;;;5023677;28;20108;-85
2020/12/10 11:37:34;;;;;;;44.65;21.23;;;2.60;93.00;;;;;;5026101;28;20374;-85
2020/12/10 11:40:15;;;;;;;41.40;21.17;;;2.60;92.90;;;;;;5031352;28;20014;-93
2020/12/10 11:42:53;;;;;;;;;;;;;;;;;;;;;
2020/12/10 11:45:19;;;;;;;41.53;20.92;;;2.60;92.90;;;;;;5057865;28;20033;-86
2020/12/10 11:48:07;;;;;;;50.17;24.85;;;2.60;93.00;;;;;;5057327;28;20029;-87
2020/12/10 11:50:34;;;;;;;42.70;22.85;;;2.70;93.00;;;;;;5033961;28;20041;-88
2020/12/10 11:53:00;;;;;;;39.47;21.27;;;2.70;93.10;;;;;;5041122;28;20076;-88
2020/12/10 11:55:26;;;;;;;44.60;21.38;;;2.70;93.00;;;;;;5049327;28;20034;-90
2020/12/10 11:57:54;;;;;;;49.40;25.73;;;2.70;93.00;;;;;;5047429;28;20030;-90
2020/12/10 12:00:22;;;;;;;45.95;24.23;;;2.70;92.90;;;;;;5043677;28;20182;-90
2020/12/10 12:03:00;;;;;;;45.97;22.67;;;2.80;93.00;;;;;;5041168;28;20030;-89
2020/12/10 12:05:26;;;;;;;43.75;22.88;;;2.80;92.90;;;;;;5026529;28;20029;-88
2020/12/10 12:08:05;;;;;;;38.47;19.85;;;2.80;93.20;;;;;;5041261;28;20098;-89
2020/12/10 12:10:34;;;;;;;39.38;19.83;;;2.80;93.00;;;;;;5020055;28;20440;-87
2020/12/10 12:13:02;;;;;;;40.83;19.90;;;2.80;92.90;;;;;;5028594;28;20054;-86
2020/12/10 12:15:30;;;;;;;40.47;21.00;;;2.80;93.00;;;;;;5029830;28;20061;-87
2020/12/10 12:17:56;;;;;;;39.55;21.00;;;2.80;92.90;;;;;;5028563;28;20022;-87
2020/12/10 12:20:24;;;;;;;43.53;20.70;;;2.90;92.90;;;;;;5026742;28;20087;-87
2020/12/10 12:22:51;;;;;;;40.03;21.15;;;2.90;92.90;;;;;;5030548;28;20494;-88
2020/12/10 12:25:17;;;;;;;42.20;21.63;;;2.90;92.90;;;;;;4988732;28;20036;-87
2020/12/10 12:27:46;;;;;;;33.15;17.70;;;2.90;92.90;;;;;;5008752;28;20045;-87
2020/12/10 12:30:16;;;;;;;39.53;19.83;;;3.00;93.00;;;;;;5011081;28;20077;-89
2020/12/10 12:32:42;;;;;;;43.10;20.53;;;3.00;92.90;;;;;;5012909;28;20485;-88
2020/12/10 12:35:13;;;;;;;42.50;21.55;;;3.00;92.90;;;;;;5013976;28;20328;-88
2020/12/10 12:37:44;;;;;;;38.50;19.67;;;3.00;92.90;;;;;;5015026;28;20061;-89
2020/12/10 12:40:31;;;;;;;41.33;21.10;;;3.00;92.90;;;;;;5014152;28;20393;-89
2020/12/10 12:43:00;;;;;;;45.13;21.80;;;3.00;92.90;;;;;;5010751;28;20033;-89
2020/12/10 12:45:33;;;;;;;39.85;22.02;;;3.00;92.90;;;;;;5006905;28;20029;-89
2020/12/10 12:47:59;;;;;;;42.67;23.65;;;3.00;92.80;;;;;;5012739;28;20022;-89
2020/12/10 12:50:26;;;;;;;42.00;22.25;;;3.10;92.80;;;;;;5007849;28;20045;-88
2020/12/10 12:52:56;;;;;;;50.30;25.25;;;3.10;92.80;;;;;;5014200;28;20362;-88
2020/12/10 12:55:24;;;;;;;43.72;23.27;;;3.00;92.70;;;;;;4989274;28;20100;-89
2020/12/10 12:57:53;;;;;;;47.38;24.45;;;3.10;92.70;;;;;;5024946;28;20117;-88
2020/12/10 13:00:19;;;;;;;42.90;21.63;;;3.00;92.70;;;;;;5004610;28;20025;-89
2020/12/10 13:02:45;;;;;;;47.50;25.20;;;3.10;92.80;;;;;;5003068;28;20433;-89
2020/12/10 13:05:19;;;;;;;45.60;22.92;;;3.10;92.70;;;;;;5027655;28;20057;-89